sensor_id;sensor_type;location;lat;lon;timestamp;temperature;humidity
48488;DHT22;34289;48.572;13.378;2023-04-28T00:01:25;3.70;99.90
48488;DHT22;34289;48.572;13.378;2023-04-28T00:03:50;4.00;99.90
48488;DHT22;34289;48.572;13.378;2023-04-28T00:06:17;4.00;99.90
48488;DHT22;34289;48.572;13.378;2023-04-28T00:08:43;3.80;99.90
48488;DHT22;34289;48.572;13.378;2023-04-28T00:11:09;3.90;99.90
48488;DHT22;34289;48.572;13.378;2023-04-28T00:13:35;3.70;99.90
48488;DHT22;34289;48.572;13.378;2023-04-28T00:16:01;3.60;99.90
48488;DHT22;34289;48.572;13.378;2023-04-28T00:18:27;3.50;99.90
48488;DHT22;34289;48.572;13.378;2023-04-28T00:20:54;3.60;99.90
48488;DHT22;34289;48.572;13.378;2023-04-28T00:23:19;3.70;99.90
48488;DHT22;34289;48.572;13.378;2023-04-28T00:25:50;4.00;99.90
48488;DHT22;34289;48.572;13.378;2023-04-28T00:28:16;3.90;99.90
48488;DHT22;34289;48.572;13.378;2023-04-28T00:30:42;3.70;99.90
48488;DHT22;34289;48.572;13.378;2023-04-28T00:33:07;3.70;99.90
48488;DHT22;34289;48.572;13.378;2023-04-28T00:35:33;3.80;99.90
48488;DHT22;34289;48.572;13.378;2023-04-28T00:37:58;3.90;99.90
48488;DHT22;34289;48.572;13.378;2023-04-28T00:40:35;4.00;99.90
48488;DHT22;34289;48.572;13.378;2023-04-28T00:43:01;3.80;99.90
48488;DHT22;34289;48.572;13.378;2023-04-28T00:45:27;3.70;99.90
48488;DHT22;34289;48.572;13.378;2023-04-28T00:47:54;3.70;99.90
48488;DHT22;34289;48.572;13.378;2023-04-28T00:50:21;3.80;99.90
48488;DHT22;34289;48.572;13.378;2023-04-28T00:52:47;3.90;99.90
48488;DHT22;34289;48.572;13.378;2023-04-28T00:55:14;4.00;99.90
48488;DHT22;34289;48.572;13.378;2023-04-28T00:57:40;4.00;99.90
48488;DHT22;34289;48.572;13.378;2023-04-28T01:00:07;4.20;99.90
48488;DHT22;34289;48.572;13.378;2023-04-28T01:02:33;4.00;99.90
48488;DHT22;34289;48.572;13.378;2023-04-28T01:05:01;4.10;99.90
48488;DHT22;34289;48.572;13.378;2023-04-28T01:07:26;4.20;99.90
48488;DHT22;34289;48.572;13.378;2023-04-28T01:09:53;4.00;99.90
48488;DHT22;34289;48.572;13.378;2023-04-28T01:12:19;3.90;99.90
48488;DHT22;34289;48.572;13.378;2023-04-28T01:14:44;3.80;99.90
48488;DHT22;34289;48.572;13.378;2023-04-28T01:17:11;4.10;99.90
48488;DHT22;34289;48.572;13.378;2023-04-28T01:19:36;4.20;99.90
48488;DHT22;34289;48.572;13.378;2023-04-28T01:22:02;4.10;99.90
48488;DHT22;34289;48.572;13.378;2023-04-28T01:24:29;4.00;99.90
48488;DHT22;34289;48.572;13.378;2023-04-28T01:26:54;4.80;99.90
48488;DHT22;34289;48.572;13.378;2023-04-28T01:29:20;4.00;99.90
48488;DHT22;34289;48.572;13.378;2023-04-28T01:31:46;4.10;99.90
48488;DHT22;34289;48.572;13.378;2023-04-28T01:34:11;4.30;99.90
48488;DHT22;34289;48.572;13.378;2023-04-28T01:36:37;4.40;99.90
48488;DHT22;34289;48.572;13.378;2023-04-28T01:39:03;4.60;99.90
48488;DHT22;34289;48.572;13.378;2023-04-28T01:41:28;4.50;99.90
48488;DHT22;34289;48.572;13.378;2023-04-28T01:43:54;4.30;99.90
48488;DHT22;34289;48.572;13.378;2023-04-28T01:46:20;4.90;99.90
48488;DHT22;34289;48.572;13.378;2023-04-28T01:48:45;4.30;99.90
48488;DHT22;34289;48.572;13.378;2023-04-28T01:51:12;4.40;99.90
48488;DHT22;34289;48.572;13.378;2023-04-28T01:53:37;4.40;99.90
48488;DHT22;34289;48.572;13.378;2023-04-28T01:56:03;4.40;99.90
48488;DHT22;34289;48.572;13.378;2023-04-28T01:58:29;4.50;99.90
48488;DHT22;34289;48.572;13.378;2023-04-28T02:00:55;4.40;99.90
48488;DHT22;34289;48.572;13.378;2023-04-28T02:03:20;4.40;99.90
48488;DHT22;34289;48.572;13.378;2023-04-28T02:05:46;4.40;99.90
48488;DHT22;34289;48.572;13.378;2023-04-28T02:08:12;4.40;99.90
48488;DHT22;34289;48.572;13.378;2023-04-28T02:10:37;4.40;99.90
48488;DHT22;34289;48.572;13.378;2023-04-28T02:13:03;4.40;99.90
48488;DHT22;34289;48.572;13.378;2023-04-28T02:15:28;4.50;99.90
48488;DHT22;34289;48.572;13.378;2023-04-28T02:17:54;4.50;99.90
48488;DHT22;34289;48.572;13.378;2023-04-28T02:20:20;4.60;99.90
48488;DHT22;34289;48.572;13.378;2023-04-28T02:22:46;4.60;99.90
48488;DHT22;34289;48.572;13.378;2023-04-28T02:25:11;4.40;99.90
48488;DHT22;34289;48.572;13.378;2023-04-28T02:27:37;4.20;99.90
48488;DHT22;34289;48.572;13.378;2023-04-28T02:30:04;4.00;99.90
48488;DHT22;34289;48.572;13.378;2023-04-28T02:32:30;4.00;99.90
48488;DHT22;34289;48.572;13.378;2023-04-28T02:34:56;4.20;99.90
48488;DHT22;34289;48.572;13.378;2023-04-28T02:37:21;4.10;99.90
48488;DHT22;34289;48.572;13.378;2023-04-28T02:39:47;4.10;99.90
48488;DHT22;34289;48.572;13.378;2023-04-28T02:42:12;4.20;99.90
48488;DHT22;34289;48.572;13.378;2023-04-28T02:44:38;4.20;99.90
48488;DHT22;34289;48.572;13.378;2023-04-28T02:47:04;4.20;99.90
48488;DHT22;34289;48.572;13.378;2023-04-28T02:49:30;4.20;99.90
48488;DHT22;34289;48.572;13.378;2023-04-28T02:51:56;4.20;99.90
48488;DHT22;34289;48.572;13.378;2023-04-28T02:54:21;4.10;99.90
48488;DHT22;34289;48.572;13.378;2023-04-28T02:56:58;4.10;99.90
48488;DHT22;34289;48.572;13.378;2023-04-28T02:59:24;4.30;99.90
48488;DHT22;34289;48.572;13.378;2023-04-28T03:01:50;4.30;99.90
48488;DHT22;34289;48.572;13.378;2023-04-28T03:04:18;4.80;99.90
48488;DHT22;34289;48.572;13.378;2023-04-28T03:06:44;4.10;99.90
48488;DHT22;34289;48.572;13.378;2023-04-28T03:09:10;5.50;99.90
48488;DHT22;34289;48.572;13.378;2023-04-28T03:11:37;4.20;99.90
48488;DHT22;34289;48.572;13.378;2023-04-28T03:14:02;4.30;99.90
48488;DHT22;34289;48.572;13.378;2023-04-28T03:16:28;4.40;99.90
48488;DHT22;34289;48.572;13.378;2023-04-28T03:18:54;4.40;99.90
48488;DHT22;34289;48.572;13.378;2023-04-28T03:21:19;4.30;99.90
48488;DHT22;34289;48.572;13.378;2023-04-28T03:23:45;4.30;99.90
48488;DHT22;34289;48.572;13.378;2023-04-28T03:26:10;4.30;99.90
48488;DHT22;34289;48.572;13.378;2023-04-28T03:28:36;4.30;99.90
48488;DHT22;34289;48.572;13.378;2023-04-28T03:31:02;4.40;99.90
48488;DHT22;34289;48.572;13.378;2023-04-28T03:33:28;4.50;99.90
48488;DHT22;34289;48.572;13.378;2023-04-28T03:35:53;4.40;99.90
48488;DHT22;34289;48.572;13.378;2023-04-28T03:38:19;4.40;99.90
48488;DHT22;34289;48.572;13.378;2023-04-28T03:40:45;4.50;99.90
48488;DHT22;34289;48.572;13.378;2023-04-28T03:43:11;4.50;99.90
48488;DHT22;34289;48.572;13.378;2023-04-28T03:45:37;4.40;99.90
48488;DHT22;34289;48.572;13.378;2023-04-28T03:48:02;4.50;99.90
48488;DHT22;34289;48.572;13.378;2023-04-28T03:50:28;4.20;99.90
48488;DHT22;34289;48.572;13.378;2023-04-28T03:52:54;4.10;99.90
48488;DHT22;34289;48.572;13.378;2023-04-28T03:55:20;4.10;99.90
48488;DHT22;34289;48.572;13.378;2023-04-28T03:57:45;4.00;99.90
48488;DHT22;34289;48.572;13.378;2023-04-28T04:00:12;4.10;99.90
48488;DHT22;34289;48.572;13.378;2023-04-28T04:02:38;4.00;99.90
48488;DHT22;34289;48.572;13.378;2023-04-28T04:05:03;4.10;99.90
48488;DHT22;34289;48.572;13.378;2023-04-28T04:07:29;4.10;99.90
48488;DHT22;34289;48.572;13.378;2023-04-28T04:09:55;4.20;99.90
48488;DHT22;34289;48.572;13.378;2023-04-28T04:12:20;4.20;99.90
48488;DHT22;34289;48.572;13.378;2023-04-28T04:14:46;4.00;99.90
48488;DHT22;34289;48.572;13.378;2023-04-28T04:17:12;3.90;99.90
48488;DHT22;34289;48.572;13.378;2023-04-28T04:19:37;4.00;99.90
48488;DHT22;34289;48.572;13.378;2023-04-28T04:22:03;4.00;99.90
48488;DHT22;34289;48.572;13.378;2023-04-28T04:24:28;4.10;99.90
48488;DHT22;34289;48.572;13.378;2023-04-28T04:26:54;4.20;99.90
48488;DHT22;34289;48.572;13.378;2023-04-28T04:29:20;4.20;99.90
48488;DHT22;34289;48.572;13.378;2023-04-28T04:31:46;4.30;99.90
48488;DHT22;34289;48.572;13.378;2023-04-28T04:34:11;4.40;99.90
48488;DHT22;34289;48.572;13.378;2023-04-28T04:36:37;4.40;99.90
48488;DHT22;34289;48.572;13.378;2023-04-28T04:39:03;4.60;99.90
48488;DHT22;34289;48.572;13.378;2023-04-28T04:41:28;4.80;99.90
48488;DHT22;34289;48.572;13.378;2023-04-28T04:43:54;5.10;99.90
48488;DHT22;34289;48.572;13.378;2023-04-28T04:46:20;5.50;99.90
48488;DHT22;34289;48.572;13.378;2023-04-28T04:48:46;6.20;99.90
48488;DHT22;34289;48.572;13.378;2023-04-28T04:51:12;7.50;99.90
48488;DHT22;34289;48.572;13.378;2023-04-28T04:53:37;9.30;99.90
48488;DHT22;34289;48.572;13.378;2023-04-28T04:56:03;10.60;99.90
48488;DHT22;34289;48.572;13.378;2023-04-28T04:58:29;10.70;99.90
48488;DHT22;34289;48.572;13.378;2023-04-28T05:00:55;10.60;99.90
48488;DHT22;34289;48.572;13.378;2023-04-28T05:03:20;10.10;99.90
48488;DHT22;34289;48.572;13.378;2023-04-28T05:05:46;9.70;99.90
48488;DHT22;34289;48.572;13.378;2023-04-28T05:08:13;9.10;99.90
48488;DHT22;34289;48.572;13.378;2023-04-28T05:10:38;8.50;99.90
48488;DHT22;34289;48.572;13.378;2023-04-28T05:13:04;8.00;99.90
48488;DHT22;34289;48.572;13.378;2023-04-28T05:15:30;7.60;99.90
48488;DHT22;34289;48.572;13.378;2023-04-28T05:17:56;7.40;99.90
48488;DHT22;34289;48.572;13.378;2023-04-28T05:20:22;7.20;99.90
48488;DHT22;34289;48.572;13.378;2023-04-28T05:22:48;7.10;99.90
48488;DHT22;34289;48.572;13.378;2023-04-28T05:25:13;7.20;99.90
48488;DHT22;34289;48.572;13.378;2023-04-28T05:27:39;7.00;99.90
48488;DHT22;34289;48.572;13.378;2023-04-28T05:30:08;7.00;99.90
48488;DHT22;34289;48.572;13.378;2023-04-28T05:32:35;7.10;99.90
48488;DHT22;34289;48.572;13.378;2023-04-28T05:35:01;7.20;99.90
48488;DHT22;34289;48.572;13.378;2023-04-28T05:37:27;7.60;99.90
48488;DHT22;34289;48.572;13.378;2023-04-28T05:39:52;7.50;99.90
48488;DHT22;34289;48.572;13.378;2023-04-28T05:42:21;7.80;99.90
48488;DHT22;34289;48.572;13.378;2023-04-28T05:44:47;8.00;99.90
48488;DHT22;34289;48.572;13.378;2023-04-28T05:47:12;8.10;99.90
48488;DHT22;34289;48.572;13.378;2023-04-28T05:49:38;8.00;99.90
48488;DHT22;34289;48.572;13.378;2023-04-28T05:52:03;8.50;99.90
48488;DHT22;34289;48.572;13.378;2023-04-28T05:54:29;8.30;99.90
48488;DHT22;34289;48.572;13.378;2023-04-28T05:56:55;8.60;99.90
48488;DHT22;34289;48.572;13.378;2023-04-28T05:59:22;9.10;99.90
48488;DHT22;34289;48.572;13.378;2023-04-28T06:01:48;10.10;99.90
48488;DHT22;34289;48.572;13.378;2023-04-28T06:04:15;11.00;99.90
48488;DHT22;34289;48.572;13.378;2023-04-28T06:06:41;11.70;99.90
48488;DHT22;34289;48.572;13.378;2023-04-28T06:09:06;12.40;99.90
48488;DHT22;34289;48.572;13.378;2023-04-28T06:11:32;13.00;99.90
48488;DHT22;34289;48.572;13.378;2023-04-28T06:13:57;13.00;99.90
48488;DHT22;34289;48.572;13.378;2023-04-28T06:16:23;13.00;99.90
48488;DHT22;34289;48.572;13.378;2023-04-28T06:18:49;12.90;99.90
48488;DHT22;34289;48.572;13.378;2023-04-28T06:21:15;12.50;99.90
48488;DHT22;34289;48.572;13.378;2023-04-28T06:23:41;12.20;99.90
48488;DHT22;34289;48.572;13.378;2023-04-28T06:26:07;12.20;99.90
48488;DHT22;34289;48.572;13.378;2023-04-28T06:28:33;11.50;99.90
48488;DHT22;34289;48.572;13.378;2023-04-28T06:30:59;11.30;99.90
48488;DHT22;34289;48.572;13.378;2023-04-28T06:33:25;11.20;99.90
48488;DHT22;34289;48.572;13.378;2023-04-28T06:35:51;11.30;99.90
48488;DHT22;34289;48.572;13.378;2023-04-28T06:38:17;11.30;99.90
48488;DHT22;34289;48.572;13.378;2023-04-28T06:40:43;11.40;99.90
48488;DHT22;34289;48.572;13.378;2023-04-28T06:43:10;11.40;99.90
48488;DHT22;34289;48.572;13.378;2023-04-28T06:45:36;11.10;99.90
48488;DHT22;34289;48.572;13.378;2023-04-28T06:48:02;10.90;99.90
48488;DHT22;34289;48.572;13.378;2023-04-28T06:50:27;10.80;99.90
48488;DHT22;34289;48.572;13.378;2023-04-28T06:52:53;10.70;99.90
48488;DHT22;34289;48.572;13.378;2023-04-28T06:55:20;10.80;99.90
48488;DHT22;34289;48.572;13.378;2023-04-28T06:57:46;11.00;99.90
48488;DHT22;34289;48.572;13.378;2023-04-28T07:00:12;11.10;99.90
48488;DHT22;34289;48.572;13.378;2023-04-28T07:02:38;11.10;99.90
48488;DHT22;34289;48.572;13.378;2023-04-28T07:05:04;11.10;99.90
48488;DHT22;34289;48.572;13.378;2023-04-28T07:07:30;11.40;99.90
48488;DHT22;34289;48.572;13.378;2023-04-28T07:09:56;11.80;99.90
48488;DHT22;34289;48.572;13.378;2023-04-28T07:12:21;11.80;99.90
48488;DHT22;34289;48.572;13.378;2023-04-28T07:14:47;11.90;99.90
48488;DHT22;34289;48.572;13.378;2023-04-28T07:17:13;11.90;99.90
48488;DHT22;34289;48.572;13.378;2023-04-28T07:19:39;12.00;99.90
48488;DHT22;34289;48.572;13.378;2023-04-28T07:22:05;11.90;99.90
48488;DHT22;34289;48.572;13.378;2023-04-28T07:24:30;12.00;99.90
48488;DHT22;34289;48.572;13.378;2023-04-28T07:26:56;12.00;99.90
48488;DHT22;34289;48.572;13.378;2023-04-28T07:29:22;12.00;99.90
48488;DHT22;34289;48.572;13.378;2023-04-28T07:31:48;12.00;99.90
48488;DHT22;34289;48.572;13.378;2023-04-28T07:34:14;12.00;99.90
48488;DHT22;34289;48.572;13.378;2023-04-28T07:36:40;12.00;99.90
48488;DHT22;34289;48.572;13.378;2023-04-28T07:39:06;12.20;99.90
48488;DHT22;34289;48.572;13.378;2023-04-28T07:41:36;12.20;99.90
48488;DHT22;34289;48.572;13.378;2023-04-28T07:44:03;12.30;99.90
48488;DHT22;34289;48.572;13.378;2023-04-28T07:46:29;12.30;99.90
48488;DHT22;34289;48.572;13.378;2023-04-28T07:48:55;12.30;99.90
48488;DHT22;34289;48.572;13.378;2023-04-28T07:51:21;12.30;99.90
48488;DHT22;34289;48.572;13.378;2023-04-28T07:53:46;12.60;99.90
48488;DHT22;34289;48.572;13.378;2023-04-28T07:56:12;12.80;99.90
48488;DHT22;34289;48.572;13.378;2023-04-28T07:58:38;12.80;99.90
48488;DHT22;34289;48.572;13.378;2023-04-28T08:01:03;12.80;99.90
48488;DHT22;34289;48.572;13.378;2023-04-28T08:03:29;13.00;99.90
48488;DHT22;34289;48.572;13.378;2023-04-28T08:05:55;13.10;99.90
48488;DHT22;34289;48.572;13.378;2023-04-28T08:08:21;13.30;99.90
48488;DHT22;34289;48.572;13.378;2023-04-28T08:10:46;13.40;99.90
48488;DHT22;34289;48.572;13.378;2023-04-28T08:13:12;13.40;99.90
48488;DHT22;34289;48.572;13.378;2023-04-28T08:15:41;13.10;99.90
48488;DHT22;34289;48.572;13.378;2023-04-28T08:27:51;12.10;99.90
48488;DHT22;34289;48.572;13.378;2023-04-28T08:32:43;12.50;99.90
48488;DHT22;34289;48.572;13.378;2023-04-28T08:35:09;12.70;99.90
48488;DHT22;34289;48.572;13.378;2023-04-28T08:40:01;12.80;99.90
48488;DHT22;34289;48.572;13.378;2023-04-28T08:42:32;12.80;99.90
48488;DHT22;34289;48.572;13.378;2023-04-28T08:44:59;12.80;99.90
48488;DHT22;34289;48.572;13.378;2023-04-28T08:47:37;12.90;99.90
48488;DHT22;34289;48.572;13.378;2023-04-28T08:50:06;12.90;99.90
48488;DHT22;34289;48.572;13.378;2023-04-28T08:52:33;13.00;99.90
48488;DHT22;34289;48.572;13.378;2023-04-28T08:55:00;12.70;99.90
48488;DHT22;34289;48.572;13.378;2023-04-28T08:57:36;12.60;99.90
48488;DHT22;34289;48.572;13.378;2023-04-28T09:00:03;12.60;99.90
48488;DHT22;34289;48.572;13.378;2023-04-28T09:07:20;12.30;99.90
48488;DHT22;34289;48.572;13.378;2023-04-28T09:14:38;11.00;99.90
48488;DHT22;34289;48.572;13.378;2023-04-28T09:17:11;12.60;99.90
48488;DHT22;34289;48.572;13.378;2023-04-28T09:19:38;12.50;99.90
48488;DHT22;34289;48.572;13.378;2023-04-28T09:24:34;12.70;99.90
48488;DHT22;34289;48.572;13.378;2023-04-28T09:27:04;12.50;99.90
48488;DHT22;34289;48.572;13.378;2023-04-28T09:29:32;12.40;99.90
48488;DHT22;34289;48.572;13.378;2023-04-28T09:32:15;12.40;99.90
48488;DHT22;34289;48.572;13.378;2023-04-28T09:35:02;12.80;99.90
48488;DHT22;34289;48.572;13.378;2023-04-28T09:37:30;12.70;99.90
48488;DHT22;34289;48.572;13.378;2023-04-28T09:40:01;12.60;99.90
48488;DHT22;34289;48.572;13.378;2023-04-28T09:42:39;12.30;99.90
48488;DHT22;34289;48.572;13.378;2023-04-28T09:45:07;12.50;99.90
48488;DHT22;34289;48.572;13.378;2023-04-28T09:47:41;12.40;99.90
48488;DHT22;34289;48.572;13.378;2023-04-28T09:50:09;12.30;99.90
48488;DHT22;34289;48.572;13.378;2023-04-28T09:52:37;12.30;99.90
48488;DHT22;34289;48.572;13.378;2023-04-28T09:55:04;12.40;99.90
48488;DHT22;34289;48.572;13.378;2023-04-28T09:57:32;12.50;99.90
48488;DHT22;34289;48.572;13.378;2023-04-28T09:59:58;12.20;99.90
48488;DHT22;34289;48.572;13.378;2023-04-28T10:02:25;12.20;99.90
48488;DHT22;34289;48.572;13.378;2023-04-28T10:04:51;12.10;99.90
48488;DHT22;34289;48.572;13.378;2023-04-28T10:07:18;12.40;99.90
48488;DHT22;34289;48.572;13.378;2023-04-28T10:09:49;12.30;99.90
48488;DHT22;34289;48.572;13.378;2023-04-28T10:12:22;12.30;99.90
48488;DHT22;34289;48.572;13.378;2023-04-28T10:14:49;12.20;99.90
48488;DHT22;34289;48.572;13.378;2023-04-28T10:19:46;12.00;99.90
48488;DHT22;34289;48.572;13.378;2023-04-28T10:22:41;12.10;99.90
48488;DHT22;34289;48.572;13.378;2023-04-28T10:27:42;12.20;99.90
48488;DHT22;34289;48.572;13.378;2023-04-28T10:30:29;12.10;99.90
48488;DHT22;34289;48.572;13.378;2023-04-28T10:38:11;11.80;99.90
48488;DHT22;34289;48.572;13.378;2023-04-28T10:40:38;12.10;99.90
48488;DHT22;34289;48.572;13.378;2023-04-28T10:43:05;12.10;99.90
48488;DHT22;34289;48.572;13.378;2023-04-28T10:56:17;12.00;99.90
48488;DHT22;34289;48.572;13.378;2023-04-28T10:58:48;12.10;99.90
48488;DHT22;34289;48.572;13.378;2023-04-28T11:14:36;12.30;99.90
48488;DHT22;34289;48.572;13.378;2023-04-28T11:19:30;12.10;99.90
48488;DHT22;34289;48.572;13.378;2023-04-28T11:21:57;11.90;99.90
48488;DHT22;34289;48.572;13.378;2023-04-28T11:24:27;12.00;99.90
48488;DHT22;34289;48.572;13.378;2023-04-28T11:26:59;12.00;99.90
48488;DHT22;34289;48.572;13.378;2023-04-28T11:29:39;11.90;99.90
48488;DHT22;34289;48.572;13.378;2023-04-28T11:32:09;11.80;99.90
48488;DHT22;34289;48.572;13.378;2023-04-28T11:34:35;11.80;99.90
48488;DHT22;34289;48.572;13.378;2023-04-28T11:39:29;11.60;99.90
48488;DHT22;34289;48.572;13.378;2023-04-28T11:42:00;11.50;99.90
48488;DHT22;34289;48.572;13.378;2023-04-28T11:44:28;11.60;99.90
48488;DHT22;34289;48.572;13.378;2023-04-28T11:46:55;11.50;99.90
48488;DHT22;34289;48.572;13.378;2023-04-28T11:49:25;11.40;99.90
48488;DHT22;34289;48.572;13.378;2023-04-28T11:52:05;11.50;99.90
48488;DHT22;34289;48.572;13.378;2023-04-28T11:56:58;11.40;99.90
48488;DHT22;34289;48.572;13.378;2023-04-28T11:59:30;11.30;99.90
48488;DHT22;34289;48.572;13.378;2023-04-28T12:02:01;11.50;99.90
48488;DHT22;34289;48.572;13.378;2023-04-28T12:09:36;11.30;99.90
48488;DHT22;34289;48.572;13.378;2023-04-28T12:12:04;11.60;99.90
48488;DHT22;34289;48.572;13.378;2023-04-28T12:14:31;11.40;99.90
48488;DHT22;34289;48.572;13.378;2023-04-28T12:17:00;12.00;99.90
48488;DHT22;34289;48.572;13.378;2023-04-28T12:22:04;11.50;99.90
48488;DHT22;34289;48.572;13.378;2023-04-28T12:24:31;11.40;99.90
48488;DHT22;34289;48.572;13.378;2023-04-28T12:27:16;11.30;99.90
48488;DHT22;34289;48.572;13.378;2023-04-28T12:32:10;11.10;99.90
48488;DHT22;34289;48.572;13.378;2023-04-28T12:34:37;11.20;99.90
48488;DHT22;34289;48.572;13.378;2023-04-28T12:37:04;11.20;99.90
48488;DHT22;34289;48.572;13.378;2023-04-28T12:39:34;11.30;99.90
48488;DHT22;34289;48.572;13.378;2023-04-28T12:44:31;11.10;99.90
48488;DHT22;34289;48.572;13.378;2023-04-28T12:47:03;11.00;99.90
48488;DHT22;34289;48.572;13.378;2023-04-28T12:56:47;11.20;99.90
48488;DHT22;34289;48.572;13.378;2023-04-28T13:18:44;11.40;99.90
48488;DHT22;34289;48.572;13.378;2023-04-28T13:43:06;11.40;99.90
48488;DHT22;34289;48.572;13.378;2023-04-28T13:45:32;11.30;99.90
48488;DHT22;34289;48.572;13.378;2023-04-28T13:47:57;11.30;99.90
48488;DHT22;34289;48.572;13.378;2023-04-28T13:50:23;11.20;99.90
48488;DHT22;34289;48.572;13.378;2023-04-28T14:02:34;11.00;99.90
48488;DHT22;34289;48.572;13.378;2023-04-28T14:07:26;11.10;99.90
48488;DHT22;34289;48.572;13.378;2023-04-28T14:09:52;11.30;99.90
48488;DHT22;34289;48.572;13.378;2023-04-28T14:12:18;11.00;99.90
48488;DHT22;34289;48.572;13.378;2023-04-28T14:14:46;11.00;99.90
48488;DHT22;34289;48.572;13.378;2023-04-28T14:36:41;11.50;99.90
48488;DHT22;34289;48.572;13.378;2023-04-28T14:41:33;11.40;99.90
48488;DHT22;34289;48.572;13.378;2023-04-28T14:51:18;11.50;99.90
48488;DHT22;34289;48.572;13.378;2023-04-28T15:03:28;11.40;99.90
48488;DHT22;34289;48.572;13.378;2023-04-28T15:05:54;11.80;99.90
48488;DHT22;34289;48.572;13.378;2023-04-28T15:20:36;11.30;99.90
48488;DHT22;34289;48.572;13.378;2023-04-28T15:30:22;11.40;99.90
48488;DHT22;34289;48.572;13.378;2023-04-28T15:35:14;11.50;99.90
48488;DHT22;34289;48.572;13.378;2023-04-28T15:37:43;11.60;99.90
48488;DHT22;34289;48.572;13.378;2023-04-28T15:40:11;12.70;99.90
48488;DHT22;34289;48.572;13.378;2023-04-28T15:42:37;11.50;99.90
48488;DHT22;34289;48.572;13.378;2023-04-28T15:45:04;11.70;99.90
48488;DHT22;34289;48.572;13.378;2023-04-28T15:47:30;11.30;99.90
48488;DHT22;34289;48.572;13.378;2023-04-28T15:49:57;11.50;99.90
48488;DHT22;34289;48.572;13.378;2023-04-28T16:09:27;11.60;99.90
48488;DHT22;34289;48.572;13.378;2023-04-28T16:21:42;11.50;99.90
48488;DHT22;34289;48.572;13.378;2023-04-28T16:29:01;11.50;99.90
48488;DHT22;34289;48.572;13.378;2023-04-28T16:31:26;11.60;99.90
48488;DHT22;34289;48.572;13.378;2023-04-28T16:36:18;11.50;99.90
48488;DHT22;34289;48.572;13.378;2023-04-28T16:38:44;11.50;99.90
48488;DHT22;34289;48.572;13.378;2023-04-28T16:46:03;11.50;99.90
48488;DHT22;34289;48.572;13.378;2023-04-28T16:48:29;11.90;99.90
48488;DHT22;34289;48.572;13.378;2023-04-28T16:50:55;11.60;99.90
48488;DHT22;34289;48.572;13.378;2023-04-28T16:53:21;11.60;99.90
48488;DHT22;34289;48.572;13.378;2023-04-28T16:58:13;11.60;99.90
48488;DHT22;34289;48.572;13.378;2023-04-28T17:05:31;11.70;99.90
48488;DHT22;34289;48.572;13.378;2023-04-28T17:12:50;11.70;99.90
48488;DHT22;34289;48.572;13.378;2023-04-28T17:15:16;11.90;99.90
48488;DHT22;34289;48.572;13.378;2023-04-28T17:17:48;11.60;99.90
48488;DHT22;34289;48.572;13.378;2023-04-28T17:22:45;11.90;99.90
48488;DHT22;34289;48.572;13.378;2023-04-28T17:25:11;11.60;99.90
48488;DHT22;34289;48.572;13.378;2023-04-28T17:30:04;11.70;99.90
48488;DHT22;34289;48.572;13.378;2023-04-28T17:59:19;11.50;99.90
48488;DHT22;34289;48.572;13.378;2023-04-28T18:04:10;11.50;99.90
48488;DHT22;34289;48.572;13.378;2023-04-28T18:11:28;11.50;99.90
48488;DHT22;34289;48.572;13.378;2023-04-28T18:16:20;11.40;99.90
48488;DHT22;34289;48.572;13.378;2023-04-28T18:45:43;11.50;99.90
48488;DHT22;34289;48.572;13.378;2023-04-28T18:48:09;11.40;99.90
48488;DHT22;34289;48.572;13.378;2023-04-28T18:53:01;11.50;99.90
48488;DHT22;34289;48.572;13.378;2023-04-28T19:02:47;11.10;99.90
48488;DHT22;34289;48.572;13.378;2023-04-28T19:17:26;11.30;99.90
48488;DHT22;34289;48.572;13.378;2023-04-28T19:19:54;11.40;99.90
48488;DHT22;34289;48.572;13.378;2023-04-28T19:22:47;11.40;99.90
48488;DHT22;34289;48.572;13.378;2023-04-28T19:25:13;11.50;99.90
48488;DHT22;34289;48.572;13.378;2023-04-28T19:30:13;11.50;99.90
48488;DHT22;34289;48.572;13.378;2023-04-28T19:32:42;11.50;99.90
48488;DHT22;34289;48.572;13.378;2023-04-28T19:35:08;11.50;99.90
48488;DHT22;34289;48.572;13.378;2023-04-28T19:37:34;11.10;99.90
48488;DHT22;34289;48.572;13.378;2023-04-28T19:40:00;11.40;99.90
48488;DHT22;34289;48.572;13.378;2023-04-28T19:44:56;11.40;99.90
48488;DHT22;34289;48.572;13.378;2023-04-28T19:47:27;11.40;99.90
48488;DHT22;34289;48.572;13.378;2023-04-28T19:49:54;11.40;99.90
48488;DHT22;34289;48.572;13.378;2023-04-28T19:52:20;11.70;99.90
48488;DHT22;34289;48.572;13.378;2023-04-28T19:54:49;11.50;99.90
48488;DHT22;34289;48.572;13.378;2023-04-28T19:57:15;11.40;99.90
48488;DHT22;34289;48.572;13.378;2023-04-28T20:04:35;11.30;99.90
48488;DHT22;34289;48.572;13.378;2023-04-28T20:07:05;11.30;99.90
48488;DHT22;34289;48.572;13.378;2023-04-28T20:09:35;11.20;99.90
48488;DHT22;34289;48.572;13.378;2023-04-28T20:12:02;11.30;99.90
48488;DHT22;34289;48.572;13.378;2023-04-28T20:14:29;11.40;99.90
48488;DHT22;34289;48.572;13.378;2023-04-28T20:21:46;11.40;99.90
48488;DHT22;34289;48.572;13.378;2023-04-28T20:29:05;11.40;99.90
48488;DHT22;34289;48.572;13.378;2023-04-28T20:31:30;11.40;99.90
48488;DHT22;34289;48.572;13.378;2023-04-28T20:33:56;11.50;99.90
48488;DHT22;34289;48.572;13.378;2023-04-28T20:38:48;11.40;99.90
48488;DHT22;34289;48.572;13.378;2023-04-28T20:46:10;11.50;99.90
48488;DHT22;34289;48.572;13.378;2023-04-28T20:53:30;11.30;99.90
48488;DHT22;34289;48.572;13.378;2023-04-28T20:58:22;11.40;99.90
48488;DHT22;34289;48.572;13.378;2023-04-28T21:05:41;11.50;99.90
48488;DHT22;34289;48.572;13.378;2023-04-28T21:08:08;11.50;99.90
48488;DHT22;34289;48.572;13.378;2023-04-28T21:10:33;11.50;99.90
48488;DHT22;34289;48.572;13.378;2023-04-28T21:30:03;9.20;99.90
48488;DHT22;34289;48.572;13.378;2023-04-28T21:39:47;11.10;99.90
48488;DHT22;34289;48.572;13.378;2023-04-28T21:47:06;11.10;99.90
48488;DHT22;34289;48.572;13.378;2023-04-28T21:54:25;11.00;99.90
48488;DHT22;34289;48.572;13.378;2023-04-28T22:04:08;10.90;99.90
48488;DHT22;34289;48.572;13.378;2023-04-28T22:11:27;10.80;99.90
48488;DHT22;34289;48.572;13.378;2023-04-28T22:16:20;11.20;99.90
48488;DHT22;34289;48.572;13.378;2023-04-28T22:33:22;10.60;99.90
48488;DHT22;34289;48.572;13.378;2023-04-28T22:45:32;10.40;99.90
48488;DHT22;34289;48.572;13.378;2023-04-28T22:50:24;10.30;99.90
48488;DHT22;34289;48.572;13.378;2023-04-28T23:00:10;10.30;99.90
48488;DHT22;34289;48.572;13.378;2023-04-28T23:07:28;10.20;99.90
48488;DHT22;34289;48.572;13.378;2023-04-28T23:22:05;10.30;99.90
48488;DHT22;34289;48.572;13.378;2023-04-28T23:24:31;10.20;99.90